Terminal Aerodrome Forecast
Issued by NWS

Home | Current Version | Previous Version | Text Only | Print | Product List | Glossary On
Versions: 1 2 3 4 5 6 7 8 9 10 11 12 13 14 15 16 17 18 19 20 21 22
000
FTUS42 KGSP 272326
TAFAND
TAF
KAND 272326Z 2800/2824 VRB03KT P6SM SCT060
     FM280400 06008KT P6SM BKN060
     FM281000 06010KT P6SM BKN017
     FM281700 06009KT P6SM BKN024=

USA.gov is the U.S. government's official web portal to all federal, state and local government web resources and services.